Time;durP1;ratioP1;P1;durP2;ratioP2;P2;SDS_P1;SDS_P2;PMS_P1;PMS_P2;Temp;Humidity;BMP_temperature;BMP_pressure;BME280_temperature;BME280_humidity;BME280_pressure;Samples;Min_cycle;Max_cycle;Signal;HPM_P1;HPM_P2
2022/04/24 00:02:19;;;;;;;8.13;4.75;;;;;;;10.58;62.59;100315.97;5071269;28;20407;-52
2022/04/24 00:04:47;;;;;;;8.05;5.30;;;;;;;10.55;63.35;100324.09;5074601;28;20495;-49
2022/04/24 00:07:17;;;;;;;9.30;5.18;;;;;;;10.50;63.26;100315.72;5074954;28;20094;-56
2022/04/24 00:09:46;;;;;;;7.20;4.53;;;;;;;10.47;63.54;100316.78;5074452;28;20131;-55
2022/04/24 00:12:16;;;;;;;8.77;5.07;;;;;;;10.47;63.60;100311.50;5075094;28;20106;-57
2022/04/24 00:14:44;;;;;;;10.02;5.07;;;;;;;10.43;63.91;100314.47;5074796;28;20173;-56
2022/04/24 00:17:15;;;;;;;8.13;5.05;;;;;;;10.42;63.96;100312.81;5074576;28;20044;-55
2022/04/24 00:19:44;;;;;;;7.47;4.95;;;;;;;10.41;64.38;100311.13;5074555;28;20059;-56
2022/04/24 00:22:12;;;;;;;8.50;5.15;;;;;;;10.34;64.79;100310.69;5074817;28;20127;-56
2022/04/24 00:24:42;;;;;;;8.82;5.90;;;;;;;10.30;64.91;100304.81;5074748;28;20145;-57
2022/04/24 00:27:11;;;;;;;8.07;5.50;;;;;;;10.21;65.29;100299.38;5070587;28;20403;-57
2022/04/24 00:29:39;;;;;;;9.07;6.07;;;;;;;10.25;64.86;100306.09;5070421;28;20045;-55
2022/04/24 00:32:08;;;;;;;8.52;5.78;;;;;;;10.23;65.59;100293.06;5074638;28;20521;-55
2022/04/24 00:34:36;;;;;;;9.20;6.25;;;;;;;10.19;65.52;100298.66;5074347;28;20051;-56
2022/04/24 00:37:05;;;;;;;9.10;5.85;;;;;;;10.18;65.30;100289.94;5074263;28;20036;-55
2022/04/24 00:39:34;;;;;;;9.27;6.30;;;;;;;10.13;65.36;100300.78;5074371;28;20048;-55
2022/04/24 00:42:04;;;;;;;10.60;6.03;;;;;;;10.09;66.62;100301.09;5069258;28;20443;-53
2022/04/24 00:44:33;;;;;;;9.35;6.40;;;;;;;10.03;66.72;100301.56;5071176;28;20109;-56
2022/04/24 00:47:07;;;;;;;9.30;6.22;;;;;;;10.00;66.28;100296.53;5074143;28;20040;-55
2022/04/24 00:49:35;;;;;;;9.55;5.97;;;;;;;9.92;66.90;100284.75;5074084;28;20048;-55
2022/04/24 00:52:04;;;;;;;10.60;6.68;;;;;;;9.92;67.28;100286.56;5074145;28;20045;-56
2022/04/24 00:54:33;;;;;;;9.95;6.53;;;;;;;9.91;67.54;100292.75;5106053;28;20056;-55
2022/04/24 00:57:03;;;;;;;9.10;6.25;;;;;;;9.89;67.83;100294.66;5067813;28;20044;-55
2022/04/24 00:59:32;;;;;;;9.25;6.30;;;;;;;9.90;67.30;100288.47;5070776;28;20084;-57
2022/04/24 01:02:03;;;;;;;9.57;6.57;;;;;;;9.92;67.71;100292.63;5074354;28;20502;-55
2022/04/24 01:04:32;;;;;;;10.43;6.60;;;;;;;9.81;68.50;100282.88;5071323;28;20058;-56
2022/04/24 01:07:01;;;;;;;10.02;6.82;;;;;;;9.86;68.53;100281.72;5068367;28;20083;-54
2022/04/24 01:09:31;;;;;;;11.10;7.43;;;;;;;9.83;69.10;100282.81;5073558;28;20067;-56
2022/04/24 01:12:00;;;;;;;10.93;6.80;;;;;;;9.79;69.30;100276.91;5073584;28;20365;-55
2022/04/24 01:14:31;;;;;;;11.93;6.97;;;;;;;9.73;69.68;100284.38;5074054;28;20492;-54
2022/04/24 01:17:00;;;;;;;10.57;7.18;;;;;;;9.71;70.31;100281.88;5070723;28;20405;-54
2022/04/24 01:19:29;;;;;;;11.23;7.22;;;;;;;9.66;70.79;100275.28;5070060;28;20101;-55
2022/04/24 01:21:59;;;;;;;10.43;6.82;;;;;;;9.70;71.10;100279.38;5073271;28;20384;-55
2022/04/24 01:24:28;;;;;;;10.43;7.07;;;;;;;9.62;71.60;100283.34;5073452;28;20151;-55
2022/04/24 01:26:57;;;;;;;9.63;6.45;;;;;;;9.63;71.51;100285.03;5073619;28;20110;-54
2022/04/24 01:29:26;;;;;;;10.73;6.70;;;;;;;9.66;71.51;100283.97;5073761;28;20051;-54
2022/04/24 01:31:55;;;;;;;10.40;7.25;;;;;;;9.57;72.04;100284.63;5073425;28;20143;-55
2022/04/24 01:34:23;;;;;;;12.90;7.43;;;;;;;9.58;72.80;100287.13;5073573;28;20056;-55
2022/04/24 01:36:52;;;;;;;12.68;7.00;;;;;;;9.57;73.03;100292.50;5073465;28;20045;-54
2022/04/24 01:39:21;;;;;;;10.52;7.20;;;;;;;9.50;73.96;100288.63;5073212;28;20123;-56
2022/04/24 01:41:51;;;;;;;10.35;7.50;;;;;;;9.52;74.07;100290.19;5071923;28;20071;-54
2022/04/24 01:44:19;;;;;;;11.65;7.90;;;;;;;9.50;74.63;100293.88;5073254;28;20098;-56
2022/04/24 01:46:48;;;;;;;13.10;7.85;;;;;;;9.43;74.98;100286.41;5073065;28;20079;-56
2022/04/24 01:49:16;;;;;;;10.73;7.80;;;;;;;9.42;75.43;100289.13;5072866;28;20056;-56
2022/04/24 01:51:46;;;;;;;10.60;7.80;;;;;;;9.39;75.74;100292.81;5072841;28;20087;-55
2022/04/24 01:54:14;;;;;;;11.68;7.60;;;;;;;9.39;75.90;100287.56;5071053;28;20066;-48
2022/04/24 01:56:44;;;;;;;10.25;7.32;;;;;;;9.35;76.43;100293.16;5067735;28;20044;-55
2022/04/24 01:59:13;;;;;;;11.07;7.50;;;;;;;9.33;76.61;100293.25;5072658;28;20789;-53
2022/04/24 02:01:42;;;;;;;10.73;7.05;;;;;;;9.32;77.29;100298.63;5068102;28;20500;-49
2022/04/24 02:04:10;;;;;;;13.07;8.63;;;;;;;9.26;77.44;100294.63;5069619;28;20156;-48
2022/04/24 02:06:38;;;;;;;11.38;6.97;;;;;;;9.26;77.60;100292.84;5072856;28;20045;-52
2022/04/24 02:09:07;;;;;;;11.40;7.85;;;;;;;9.20;78.21;100297.66;5072591;28;20053;-49
2022/04/24 02:11:35;;;;;;;12.15;7.57;;;;;;;9.16;78.42;100299.63;5072333;28;20040;-55
2022/04/24 02:14:04;;;;;;;11.10;7.90;;;;;;;9.13;78.87;100295.47;5072337;28;20041;-55
2022/04/24 02:16:33;;;;;;;12.15;7.53;;;;;;;9.16;79.32;100302.25;5072330;28;20087;-55
2022/04/24 02:19:01;;;;;;;10.52;7.78;;;;;;;9.15;79.16;100305.84;5070270;28;20044;-53
2022/04/24 02:21:29;;;;;;;11.80;7.70;;;;;;;9.09;80.33;100301.00;5068758;28;20048;-55
2022/04/24 02:23:57;;;;;;;10.05;7.10;;;;;;;9.08;80.48;100296.69;5071028;28;20040;-55
2022/04/24 02:26:26;;;;;;;12.65;7.53;;;;;;;9.03;80.60;100302.25;5072302;28;20537;-55
2022/04/24 02:28:55;;;;;;;11.07;7.25;;;;;;;9.04;80.85;100300.47;5067680;28;20139;-56
2022/04/24 02:31:24;;;;;;;11.77;7.35;;;;;;;9.00;81.70;100291.13;5070357;28;20139;-55
2022/04/24 02:33:53;;;;;;;9.75;7.03;;;;;;;9.05;81.11;100296.91;5072316;28;20411;-54
2022/04/24 02:36:21;;;;;;;10.93;7.72;;;;;;;8.99;82.05;100295.53;5072330;28;20044;-54
2022/04/24 02:38:49;;;;;;;11.85;7.63;;;;;;;8.95;82.34;100297.53;5072075;28;20036;-57
2022/04/24 02:41:17;;;;;;;10.60;7.18;;;;;;;8.93;82.59;100295.94;5070418;28;20498;-56
2022/04/24 02:43:46;;;;;;;14.95;8.05;;;;;;;8.96;82.21;100291.34;5068270;28;20128;-48
2022/04/24 02:46:14;;;;;;;14.27;8.07;;;;;;;8.85;83.07;100293.84;5069281;28;20113;-55
2022/04/24 02:48:44;;;;;;;13.80;7.63;;;;;;;8.80;83.42;100311.66;5071638;28;20041;-56
2022/04/24 02:51:12;;;;;;;13.88;7.72;;;;;;;8.75;84.33;100298.88;5071498;28;20080;-55
2022/04/24 02:53:41;;;;;;;11.85;7.22;;;;;;;8.76;83.89;100299.69;5069361;28;20055;-56
2022/04/24 02:56:09;;;;;;;12.13;7.60;;;;;;;8.77;83.98;100304.00;5066709;28;20526;-55
2022/04/24 02:58:39;;;;;;;11.90;7.50;;;;;;;8.80;84.04;100303.78;5068881;28;20049;-55
2022/04/24 03:01:08;;;;;;;12.63;7.40;;;;;;;8.78;84.10;100311.78;5071756;28;20048;-56
2022/04/24 03:03:37;;;;;;;12.68;7.07;;;;;;;8.69;84.28;100308.91;5071329;28;20068;-56
2022/04/24 03:06:07;;;;;;;11.15;6.97;;;;;;;8.61;84.71;100312.03;5071637;28;20048;-55
2022/04/24 03:08:36;;;;;;;11.40;7.60;;;;;;;8.60;84.94;100313.81;5071717;28;20048;-54
2022/04/24 03:11:04;;;;;;;11.63;7.45;;;;;;;8.67;84.46;100311.66;5068452;28;20091;-53
2022/04/24 03:13:32;;;;;;;10.38;7.03;;;;;;;8.57;84.42;100306.13;5067553;28;20054;-55
2022/04/24 03:16:01;;;;;;;11.88;6.55;;;;;;;8.57;84.58;100315.78;5070391;28;20102;-54
2022/04/24 03:18:29;;;;;;;11.82;7.03;;;;;;;8.50;84.96;100310.09;5071567;28;20044;-56
2022/04/24 03:20:57;;;;;;;14.07;7.55;;;;;;;8.59;84.74;100319.16;5071637;28;20496;-55
2022/04/24 03:23:27;;;;;;;10.25;6.63;;;;;;;8.50;84.60;100314.53;5071988;28;20401;-55
2022/04/24 03:25:55;;;;;;;10.90;6.63;;;;;;;8.48;85.24;100305.91;5071635;28;20135;-55
2022/04/24 03:28:23;;;;;;;10.93;6.25;;;;;;;8.44;84.79;100313.94;5071421;28;20048;-56
2022/04/24 03:30:52;;;;;;;12.02;7.03;;;;;;;8.49;84.99;100313.66;5071399;28;20543;-56
2022/04/24 03:33:19;;;;;;;13.48;7.40;;;;;;;8.46;84.67;100313.88;5070326;28;20055;-54
2022/04/24 03:35:47;;;;;;;14.23;6.95;;;;;;;8.39;85.18;100307.31;5071380;28;20098;-54
2022/04/24 03:38:15;;;;;;;10.18;6.85;;;;;;;8.34;85.55;100314.63;5071501;28;20450;-50
2022/04/24 03:40:45;;;;;;;12.00;6.97;;;;;;;8.29;85.72;100313.16;5071423;28;20050;-51
2022/04/24 03:43:13;;;;;;;13.00;6.78;;;;;;;8.26;85.28;100313.34;5071295;28;20076;-52
2022/04/24 03:45:41;;;;;;;12.52;7.18;;;;;;;8.25;85.65;100308.22;5071552;28;20055;-49
2022/04/24 03:48:09;;;;;;;10.50;6.70;;;;;;;8.27;85.26;100312.38;5070999;28;20120;-52
2022/04/24 03:50:38;;;;;;;11.13;6.80;;;;;;;8.28;84.98;100316.69;5071051;28;20060;-48
2022/04/24 03:53:07;;;;;;;11.57;6.45;;;;;;;8.23;85.29;100304.84;5071332;28;20053;-52
2022/04/24 03:55:35;;;;;;;8.98;6.32;;;;;;;8.20;85.57;100310.28;5071185;28;20048;-52
2022/04/24 03:58:05;;;;;;;10.68;6.45;;;;;;;8.24;85.23;100303.91;5071304;28;20080;-51
2022/04/24 04:00:34;;;;;;;11.57;6.60;;;;;;;8.16;85.30;100312.25;5071779;28;20074;-50
2022/04/24 04:03:02;;;;;;;11.43;6.70;;;;;;;8.16;85.23;100308.78;5069321;28;20048;-50
2022/04/24 04:05:30;;;;;;;12.90;6.70;;;;;;;8.12;85.48;100308.97;5067041;28;20116;-48
2022/04/24 04:07:59;;;;;;;10.75;6.55;;;;;;;8.05;85.93;100319.94;5068532;28;20055;-52
2022/04/24 04:10:27;;;;;;;10.65;6.10;;;;;;;8.10;85.26;100312.66;5070402;28;20083;-46
2022/04/24 04:12:55;;;;;;;11.93;6.05;;;;;;;8.05;85.16;100307.69;5070694;28;20541;-50
2022/04/24 04:15:25;;;;;;;11.95;6.20;;;;;;;8.01;85.40;100315.84;5070660;28;20198;-49
2022/04/24 04:17:53;;;;;;;10.07;6.15;;;;;;;8.00;85.22;100314.16;5070756;28;20043;-47
2022/04/24 04:20:21;;;;;;;11.57;6.68;;;;;;;7.95;85.48;100320.50;5071172;28;20044;-49
2022/04/24 04:22:51;;;;;;;9.35;6.00;;;;;;;7.99;85.30;100322.94;5070906;28;20041;-50
2022/04/24 04:25:21;;;;;;;10.60;6.88;;;;;;;7.95;85.47;100325.75;5070747;28;20056;-48
2022/04/24 04:27:49;;;;;;;9.32;5.80;;;;;;;7.92;85.79;100319.84;5070865;28;20045;-51
2022/04/24 04:30:18;;;;;;;9.27;6.10;;;;;;;7.92;85.83;100319.84;5070746;28;20056;-51
2022/04/24 04:32:48;;;;;;;9.70;5.80;;;;;;;7.89;85.28;100331.34;5070941;28;20480;-47
2022/04/24 04:35:16;;;;;;;11.20;6.07;;;;;;;7.87;85.36;100320.16;5070780;28;20048;-50
2022/04/24 04:37:44;;;;;;;9.43;5.88;;;;;;;7.89;84.98;100325.28;5068380;28;20044;-47
2022/04/24 04:40:13;;;;;;;10.43;5.97;;;;;;;7.90;85.42;100321.75;5067162;28;20131;-50
2022/04/24 04:42:41;;;;;;;9.77;5.78;;;;;;;7.86;85.01;100323.69;5068935;28;20177;-50
2022/04/24 04:45:10;;;;;;;11.95;5.90;;;;;;;7.89;84.61;100327.91;5074327;28;20051;-51
2022/04/24 04:47:39;;;;;;;9.35;5.88;;;;;;;7.91;84.58;100337.34;5074177;28;20060;-52
2022/04/24 04:50:09;;;;;;;9.32;6.03;;;;;;;7.84;84.13;100338.69;5072765;28;20044;-49
2022/04/24 04:52:38;;;;;;;9.35;5.80;;;;;;;7.84;84.60;100337.81;5072885;28;20061;-50
2022/04/24 04:55:07;;;;;;;11.02;5.45;;;;;;;7.89;83.80;100339.22;5072290;28;20056;-54
2022/04/24 04:57:35;;;;;;;8.10;5.25;;;;;;;7.82;84.26;100342.31;5069730;28;20484;-56
2022/04/24 05:00:07;;;;;;;8.00;5.13;;;;;;;7.83;84.32;100344.84;5072914;28;20032;-56
2022/04/24 05:02:37;;;;;;;8.10;5.03;;;;;;;7.84;84.05;100349.16;5070546;28;20101;-55
2022/04/24 05:05:09;;;;;;;9.32;5.25;;;;;;;7.84;83.47;100349.16;5070087;28;20087;-55
2022/04/24 05:07:38;;;;;;;10.80;5.60;;;;;;;7.90;83.27;100354.00;5074481;28;20084;-55
2022/04/24 05:10:07;;;;;;;9.68;5.47;;;;;;;7.84;83.85;100350.91;5073920;28;20090;-55
2022/04/24 05:12:36;;;;;;;10.50;5.80;;;;;;;7.85;83.59;100357.84;5074216;28;20115;-54
2022/04/24 05:15:06;;;;;;;11.63;5.90;;;;;;;7.87;83.01;100363.84;5072525;28;20512;-55
2022/04/24 05:17:36;;;;;;;8.95;5.13;;;;;;;7.86;82.48;100362.97;5074086;28;20538;-48
2022/04/24 05:20:06;;;;;;;8.07;5.22;;;;;;;7.91;82.52;100366.16;5072296;28;20049;-48
2022/04/24 05:22:36;;;;;;;8.18;4.70;;;;;;;7.89;81.94;100369.81;5069469;28;20055;-45
2022/04/24 05:25:05;;;;;;;9.57;5.10;;;;;;;7.87;82.82;100363.84;5072248;28;20126;-47
2022/04/24 05:27:33;;;;;;;9.57;5.10;;;;;;;7.89;82.08;100368.00;5068408;28;20369;-47
2022/04/24 05:30:01;;;;;;;9.32;5.47;;;;;;;7.94;81.23;100372.97;5068857;28;20102;-51
2022/04/24 05:32:29;;;;;;;7.97;4.78;;;;;;;7.95;81.84;100378.13;5073405;28;20044;-50
2022/04/24 05:34:58;;;;;;;9.10;5.30;;;;;;;7.94;81.48;100376.44;5073060;28;20101;-49
2022/04/24 05:37:26;;;;;;;9.45;5.32;;;;;;;7.98;81.11;100379.72;5072657;28;20047;-50
2022/04/24 05:39:55;;;;;;;8.93;5.07;;;;;;;8.00;81.42;100379.63;5072662;28;20059;-48
2022/04/24 05:42:24;;;;;;;7.93;4.85;;;;;;;8.02;81.20;100385.63;5073015;28;20102;-47
2022/04/24 05:44:53;;;;;;;9.65;5.50;;;;;;;8.05;80.60;100385.41;5071545;28;20044;-52
2022/04/24 05:47:21;;;;;;;9.13;5.55;;;;;;;8.08;80.23;100388.66;5071137;28;20048;-48
2022/04/24 05:49:49;;;;;;;8.63;5.35;;;;;;;8.10;80.37;100383.38;5068116;28;20395;-46
2022/04/24 05:52:17;;;;;;;8.85;5.32;;;;;;;8.17;80.41;100386.44;5071039;28;20518;-49
2022/04/24 05:54:45;;;;;;;8.15;5.10;;;;;;;8.23;79.63;100386.88;5072671;28;20063;-48
2022/04/24 05:57:15;;;;;;;8.60;5.00;;;;;;;8.27;79.40;100383.13;5072726;28;20433;-52
2022/04/24 05:59:43;;;;;;;9.68;5.60;;;;;;;8.32;79.27;100376.75;5072489;28;20075;-48
2022/04/24 06:02:12;;;;;;;8.52;5.15;;;;;;;8.42;78.33;100388.34;5072880;28;20048;-49
2022/04/24 06:04:40;;;;;;;7.45;4.60;;;;;;;8.46;78.06;100387.25;5072658;28;20131;-50
2022/04/24 06:07:10;;;;;;;8.73;5.05;;;;;;;8.53;77.80;100393.78;5068894;28;20052;-48
2022/04/24 06:09:38;;;;;;;8.35;4.82;;;;;;;8.64;77.70;100390.47;5069094;28;20045;-49
2022/04/24 06:12:07;;;;;;;9.25;5.07;;;;;;;8.71;77.09;100386.53;5072240;28;20102;-49
2022/04/24 06:14:37;;;;;;;9.18;4.88;;;;;;;8.81;77.39;100397.25;5072187;28;20442;-52
2022/04/24 06:17:06;;;;;;;8.80;5.00;;;;;;;8.86;76.08;100389.94;5071850;28;20140;-50
2022/04/24 06:19:34;;;;;;;11.27;4.93;;;;;;;8.98;75.93;100387.44;5072350;28;20044;-49
2022/04/24 06:22:02;;;;;;;8.85;5.25;;;;;;;9.03;75.05;100383.56;5072714;28;20135;-54
2022/04/24 06:24:31;;;;;;;10.25;5.05;;;;;;;9.07;75.18;100386.84;5072443;28;20040;-49
2022/04/24 06:26:59;;;;;;;7.70;4.25;;;;;;;9.16;75.40;100385.38;5069240;28;20521;-49
2022/04/24 06:29:28;;;;;;;9.02;5.07;;;;;;;9.31;74.18;100376.47;5068246;28;20504;-50
2022/04/24 06:31:57;;;;;;;7.80;4.82;;;;;;;9.36;73.46;100384.88;5070097;28;20082;-54
2022/04/24 06:34:26;;;;;;;9.35;5.10;;;;;;;9.36;72.91;100381.44;5071892;28;20106;-52
2022/04/24 06:36:54;;;;;;;8.65;5.40;;;;;;;9.43;72.67;100383.53;5072120;28;20047;-49
2022/04/24 06:39:22;;;;;;;8.52;4.95;;;;;;;9.59;73.41;100380.72;5070455;28;20102;-48
2022/04/24 06:41:50;;;;;;;8.55;5.15;;;;;;;9.73;72.86;100392.06;5064995;28;20055;-49
2022/04/24 06:44:20;;;;;;;9.43;5.20;;;;;;;9.76;72.36;100383.97;5070341;28;20080;-49
2022/04/24 06:46:48;;;;;;;8.70;5.45;;;;;;;9.89;71.16;100387.41;5070615;28;20395;-50
2022/04/24 06:49:18;;;;;;;8.55;5.50;;;;;;;9.95;69.79;100384.38;5071337;28;20144;-48
2022/04/24 06:51:46;;;;;;;7.95;4.68;;;;;;;10.04;69.38;100382.88;5067212;28;20083;-50
2022/04/24 06:54:14;;;;;;;7.75;5.25;;;;;;;10.12;69.51;100384.97;5067985;28;20048;-48
2022/04/24 06:56:43;;;;;;;9.70;4.82;;;;;;;10.27;70.56;100381.25;5071706;28;20049;-51
2022/04/24 06:59:11;;;;;;;7.38;4.82;;;;;;;10.36;69.01;100389.47;5071671;28;20044;-50
2022/04/24 07:01:39;;;;;;;10.05;5.22;;;;;;;10.46;68.14;100385.25;5072083;28;20048;-48
2022/04/24 07:04:08;;;;;;;7.93;4.82;;;;;;;10.60;68.74;100390.31;5070962;28;20050;-51
2022/04/24 07:06:38;;;;;;;9.48;5.40;;;;;;;10.75;66.52;100384.91;5071721;28;20052;-51
2022/04/24 07:09:06;;;;;;;8.93;4.93;;;;;;;10.83;67.05;100379.94;5071501;28;20076;-51
2022/04/24 07:11:35;;;;;;;8.55;4.75;;;;;;;10.97;65.82;100381.53;5071621;28;20060;-50
2022/04/24 07:14:03;;;;;;;8.95;4.95;;;;;;;11.06;65.02;100398.44;5071382;28;20052;-50
2022/04/24 07:16:33;;;;;;;8.50;4.57;;;;;;;11.08;65.10;100389.47;5071563;28;20040;-53
2022/04/24 07:19:02;;;;;;;8.25;4.75;;;;;;;11.14;64.93;100393.44;5068632;28;20051;-46
2022/04/24 07:21:30;;;;;;;8.48;4.60;;;;;;;11.29;66.10;100394.91;5067126;28;20072;-50
2022/04/24 07:24:01;;;;;;;8.68;4.70;;;;;;;11.47;64.91;100395.31;5068727;28;20162;-49
2022/04/24 07:26:30;;;;;;;8.73;5.50;;;;;;;11.56;63.56;100400.84;5071154;28;20074;-51
2022/04/24 07:28:59;;;;;;;11.00;5.30;;;;;;;11.60;64.24;100394.38;5066374;28;20040;-48
2022/04/24 07:31:28;;;;;;;8.73;4.90;;;;;;;11.77;63.73;100399.19;5069099;28;20356;-52
2022/04/24 07:33:58;;;;;;;7.97;4.90;;;;;;;11.95;63.17;100396.13;5071485;28;20055;-57
2022/04/24 07:36:26;;;;;;;8.55;4.85;;;;;;;11.98;61.84;100393.25;5068335;28;20503;-56
2022/04/24 07:38:55;;;;;;;9.70;4.97;;;;;;;12.07;61.86;100391.69;5066700;28;20057;-57
2022/04/24 07:41:25;;;;;;;8.75;5.25;;;;;;;12.23;61.57;100397.44;5071091;28;20083;-48
2022/04/24 07:43:54;;;;;;;8.20;4.82;;;;;;;12.42;61.53;100407.34;5071284;28;20510;-49
2022/04/24 07:46:23;;;;;;;7.90;4.85;;;;;;;12.51;59.62;100401.31;5071646;28;20049;-48
2022/04/24 07:48:51;;;;;;;8.05;4.97;;;;;;;12.48;58.99;100403.38;5071028;28;20423;-50
2022/04/24 07:51:20;;;;;;;8.10;5.10;;;;;;;12.69;59.35;100398.16;5071166;28;20041;-48
2022/04/24 07:53:48;;;;;;;11.40;5.32;;;;;;;12.86;59.30;100394.16;5070202;28;20094;-47
2022/04/24 07:56:16;;;;;;;10.02;4.82;;;;;;;13.10;59.31;100407.16;5065940;28;20102;-52
2022/04/24 07:58:46;;;;;;;9.18;4.90;;;;;;;13.13;57.43;100401.59;5067850;28;20131;-53
2022/04/24 08:01:16;;;;;;;7.85;5.32;;;;;;;13.00;57.34;100396.50;5071037;28;20075;-49
2022/04/24 08:03:45;;;;;;;7.85;4.85;;;;;;;13.14;56.43;100405.06;5071062;28;20511;-50
2022/04/24 08:06:15;;;;;;;9.27;5.10;;;;;;;13.38;56.72;100404.03;5070832;28;20060;-48
2022/04/24 08:08:44;;;;;;;7.93;4.80;;;;;;;13.42;56.90;100408.09;5071193;28;20048;-48
2022/04/24 08:11:12;;;;;;;8.52;4.90;;;;;;;13.47;57.34;100403.25;5067899;28;20488;-50
2022/04/24 08:13:40;;;;;;;8.30;5.10;;;;;;;13.78;56.27;100396.19;5066015;28;20084;-47
2022/04/24 08:16:10;;;;;;;7.43;4.88;;;;;;;14.00;55.76;100402.28;5071914;28;20491;-52
2022/04/24 08:18:38;;;;;;;9.90;4.95;;;;;;;13.96;54.88;100399.06;5074397;28;20037;-55
2022/04/24 08:21:07;;;;;;;8.45;5.00;;;;;;;14.10;54.63;100399.69;5070155;28;20052;-51
2022/04/24 08:23:35;;;;;;;8.65;5.35;;;;;;;14.24;54.71;100407.25;5072452;28;20206;-47
2022/04/24 08:26:06;;;;;;;9.30;5.10;;;;;;;14.47;54.52;100409.69;5074429;28;20128;-52
2022/04/24 08:28:34;;;;;;;7.78;4.97;;;;;;;14.52;53.71;100404.81;5074556;28;20094;-54
2022/04/24 08:31:02;;;;;;;9.57;5.03;;;;;;;14.66;52.96;100412.38;5071225;28;20179;-52
2022/04/24 08:33:32;;;;;;;9.85;5.20;;;;;;;15.04;52.58;100408.09;5070923;28;20443;-50
2022/04/24 08:36:00;;;;;;;9.38;5.80;;;;;;;14.93;52.20;100415.31;5074493;28;20044;-51
2022/04/24 08:38:29;;;;;;;8.32;5.22;;;;;;;14.97;51.23;100408.78;5074778;28;20044;-47
2022/04/24 08:41:00;;;;;;;8.50;5.30;;;;;;;15.19;51.67;100407.69;5074249;28;20522;-48
2022/04/24 08:43:28;;;;;;;9.25;5.20;;;;;;;15.47;50.23;100405.94;5074086;28;20052;-49
2022/04/24 08:45:57;;;;;;;8.40;5.00;;;;;;;15.57;49.48;100403.31;5072981;28;20150;-52
2022/04/24 08:48:25;;;;;;;9.38;5.82;;;;;;;15.77;49.84;100408.53;5069334;28;20224;-49
2022/04/24 08:50:58;;;;;;;9.13;5.30;;;;;;;15.95;49.67;100411.28;5070589;28;20068;-51
2022/04/24 08:53:30;;;;;;;8.60;5.10;;;;;;;16.15;49.23;100414.69;5074335;28;20049;-47
2022/04/24 08:55:58;;;;;;;8.82;5.43;;;;;;;16.20;48.28;100410.63;5073841;28;20056;-48
2022/04/24 08:58:26;;;;;;;8.73;5.50;;;;;;;16.29;48.33;100413.38;5073907;28;20048;-49
2022/04/24 09:00:56;;;;;;;9.10;5.80;;;;;;;16.33;48.11;100406.78;5073886;28;20052;-51
2022/04/24 09:03:24;;;;;;;8.93;5.60;;;;;;;16.57;47.41;100408.88;5074153;28;20503;-49
2022/04/24 09:05:53;;;;;;;9.38;5.72;;;;;;;16.65;47.16;100402.84;5073726;28;20059;-50
2022/04/24 09:08:24;;;;;;;8.35;5.60;;;;;;;16.89;47.35;100412.88;5073853;28;20434;-51
2022/04/24 09:11:13;;;;;;;9.50;5.55;;;;;;;17.03;46.08;100408.88;5073809;28;20044;-52
2022/04/24 09:16:47;;;;;;;8.60;5.60;;;;;;;17.33;45.00;100409.41;5031353;28;20092;-52
2022/04/24 09:19:20;;;;;;;8.15;5.32;;;;;;;17.34;45.50;100411.94;5031483;28;20127;-49
2022/04/24 09:21:49;;;;;;;10.40;5.35;;;;;;;17.46;44.97;100406.38;5053772;28;20057;-49
2022/04/24 09:24:19;;;;;;;10.40;5.63;;;;;;;17.47;44.91;100405.41;5073457;28;20048;-51
2022/04/24 09:26:51;;;;;;;8.07;5.80;;;;;;;17.47;44.88;100411.53;5072896;28;20491;-49
2022/04/24 09:29:21;;;;;;;9.38;6.15;;;;;;;17.66;44.12;100410.50;5073135;28;20045;-57
2022/04/24 09:31:50;;;;;;;8.25;5.47;;;;;;;17.62;44.45;100408.31;5073395;28;20051;-57
2022/04/24 09:34:21;;;;;;;10.32;5.68;;;;;;;17.78;43.69;100413.72;5073159;28;20143;-54
2022/04/24 09:37:01;;;;;;;10.20;5.70;;;;;;;17.96;44.74;100410.22;5073072;28;20052;-56
2022/04/24 09:39:31;;;;;;;9.70;5.90;;;;;;;17.94;43.48;100404.19;5072963;28;20148;-56
2022/04/24 09:42:05;;;;;;;13.15;5.78;;;;;;;18.22;44.08;100410.16;5072790;28;20064;-54
2022/04/24 09:44:40;;;;;;;8.38;5.60;;;;;;;18.39;43.06;100414.53;5069159;28;20110;-55
2022/04/24 09:47:29;;;;;;;8.55;5.70;;;;;;;18.55;42.85;100405.75;5070589;28;20487;-56
2022/04/24 09:50:01;;;;;;;9.30;6.05;;;;;;;18.52;42.28;100410.59;5072857;28;20043;-55
2022/04/24 09:52:33;;;;;;;13.07;5.77;;;;;;;18.40;42.17;100410.03;5073246;28;20132;-56
2022/04/24 09:55:03;;;;;;;9.57;5.82;;;;;;;18.59;42.32;100414.25;5072588;28;20110;-56
2022/04/24 09:57:32;;;;;;;11.00;5.40;;;;;;;18.86;42.03;100406.97;5072760;28;20143;-54
2022/04/24 10:00:00;;;;;;;9.95;5.55;;;;;;;19.03;42.04;100408.69;5069198;28;20048;-55
2022/04/24 10:02:31;;;;;;;9.07;5.80;;;;;;;19.01;40.97;100412.53;5067862;28;20121;-56
2022/04/24 10:05:00;;;;;;;8.48;5.55;;;;;;;18.79;40.43;100406.81;5071279;28;20534;-56
2022/04/24 10:07:30;;;;;;;10.93;5.72;;;;;;;19.20;40.60;100404.19;5068067;28;20127;-56
2022/04/24 10:09:59;;;;;;;8.70;5.15;;;;;;;19.03;41.58;100407.84;5069440;28;20539;-53
2022/04/24 10:12:31;;;;;;;9.88;5.72;;;;;;;19.17;39.25;100415.19;5071854;28;20048;-50
2022/04/24 10:15:02;;;;;;;10.27;6.15;;;;;;;19.18;40.45;100416.88;5071579;28;20056;-51
2022/04/24 10:17:47;;;;;;;9.70;5.57;;;;;;;19.66;40.13;100424.97;5066754;28;20068;-52
2022/04/24 10:20:30;;;;;;;7.72;5.00;;;;;;;19.75;38.05;100417.78;5068825;28;20472;-53
2022/04/24 10:23:00;;;;;;;10.57;5.72;;;;;;;20.13;38.94;100414.53;5072151;28;20563;-49
2022/04/24 10:25:36;;;;;;;8.38;5.10;;;;;;;19.76;38.80;100424.78;5072140;28;20453;-52
2022/04/24 10:28:13;;;;;;;9.68;5.50;;;;;;;19.96;37.95;100419.94;5065074;28;20052;-53
2022/04/24 10:30:44;;;;;;;8.95;5.30;;;;;;;20.10;38.20;100416.53;5068616;28;20053;-49
2022/04/24 10:33:22;;;;;;;11.18;6.15;;;;;;;20.05;38.00;100428.75;5072000;28;20426;-52
2022/04/24 10:35:52;;;;;;;10.75;5.28;;;;;;;20.20;38.32;100432.34;5071915;28;20068;-52
2022/04/24 10:38:22;;;;;;;9.50;5.43;;;;;;;19.90;38.02;100423.28;5066301;28;20396;-52
2022/04/24 10:40:59;;;;;;;9.55;5.00;;;;;;;19.99;37.69;100427.59;5067517;28;20052;-50
2022/04/24 10:43:36;;;;;;;8.23;5.00;;;;;;;19.86;37.89;100420.09;5070691;28;20151;-53
2022/04/24 10:46:16;;;;;;;7.80;5.32;;;;;;;20.16;37.55;100424.88;5071765;28;20048;-51
2022/04/24 10:48:47;;;;;;;8.05;5.18;;;;;;;20.22;36.63;100425.00;5071903;28;20268;-53
2022/04/24 10:51:27;;;;;;;8.20;5.38;;;;;;;20.04;36.83;100421.72;5070336;28;20085;-53
2022/04/24 10:53:58;;;;;;;8.05;4.22;;;;;;;20.33;37.26;100421.13;5066684;28;20063;-50
2022/04/24 10:56:28;;;;;;;8.82;4.50;;;;;;;20.51;37.17;100414.69;5069054;28;20044;-55
2022/04/24 10:59:08;;;;;;;8.07;4.97;;;;;;;20.59;36.50;100420.00;5071637;28;20521;-52
2022/04/24 11:01:38;;;;;;;8.57;4.75;;;;;;;20.69;34.71;100425.94;5071863;28;20518;-53
2022/04/24 11:04:07;;;;;;;7.97;4.63;;;;;;;21.09;34.81;100421.34;5071113;28;20064;-53
2022/04/24 11:06:36;;;;;;;7.82;4.90;;;;;;;21.15;35.92;100432.34;5068177;28;20053;-49
2022/04/24 11:09:09;;;;;;;9.85;5.05;;;;;;;21.05;36.06;100429.88;5065698;28;20058;-50
2022/04/24 11:11:46;;;;;;;8.38;4.85;;;;;;;20.81;36.15;100426.38;5069852;28;20048;-52
2022/04/24 11:14:21;;;;;;;7.00;4.70;;;;;;;21.04;35.39;100418.38;5071046;28;20044;-56
2022/04/24 11:16:51;;;;;;;7.20;4.75;;;;;;;20.87;34.77;100409.63;5071055;28;20494;-56
2022/04/24 11:19:25;;;;;;;9.05;4.82;;;;;;;20.63;34.25;100423.97;5071085;28;20106;-56
2022/04/24 11:21:57;;;;;;;7.10;4.70;;;;;;;21.01;33.59;100413.38;5070969;28;20044;-57
2022/04/24 11:24:27;;;;;;;9.70;4.97;;;;;;;21.01;34.10;100416.06;5071654;28;20064;-56
2022/04/24 11:26:56;;;;;;;8.65;4.85;;;;;;;20.94;33.94;100417.75;5071150;28;20402;-55
2022/04/24 11:29:26;;;;;;;7.10;4.68;;;;;;;21.28;34.74;100420.03;5071146;28;20414;-56
2022/04/24 11:31:56;;;;;;;6.85;4.30;;;;;;;21.36;33.74;100405.72;5070933;28;20447;-57
2022/04/24 11:34:26;;;;;;;9.02;4.53;;;;;;;21.73;32.66;100412.09;5071463;28;20052;-56
2022/04/24 11:36:57;;;;;;;8.38;4.95;;;;;;;21.67;33.76;100412.00;5103621;28;20553;-57
2022/04/24 11:39:27;;;;;;;7.65;4.45;;;;;;;21.65;32.67;100414.88;5071333;28;20560;-56
2022/04/24 11:41:58;;;;;;;7.75;4.45;;;;;;;22.03;31.28;100413.94;5066252;28;20055;-57